createdAt,value
2023-11-21T00:01:45.795Z,94955.59
2023-11-21T00:04:49.187Z,94958.28
2023-11-21T00:07:50.938Z,94957.91
2023-11-21T00:10:52.853Z,94956.41
2023-11-21T00:13:54.651Z,94951.00
2023-11-21T00:16:56.453Z,94951.38
2023-11-21T00:19:59.568Z,94953.69
2023-11-21T00:23:01.427Z,94953.31
2023-11-21T00:26:03.129Z,94951.44
2023-11-21T00:29:04.935Z,94944.50
2023-11-21T00:32:07.552Z,94955.69
2023-11-21T00:35:10.988Z,94960.28
2023-11-21T00:38:12.712Z,94956.38
2023-11-21T00:41:14.440Z,94958.25
2023-11-21T00:44:16.226Z,94958.31
2023-11-21T00:47:18.044Z,94952.97
2023-11-21T00:50:23.433Z,94949.47
2023-11-21T00:53:25.195Z,94967.56
2023-11-21T00:56:27.013Z,94964.88
2023-11-21T00:59:28.758Z,94967.88
2023-11-21T01:02:30.527Z,94959.81
2023-11-21T01:05:33.626Z,94955.91
2023-11-21T01:08:35.385Z,94950.53
2023-11-21T01:11:37.373Z,94955.13
2023-11-21T01:14:39.097Z,94945.16
2023-11-21T01:17:41.069Z,94943.97
2023-11-21T01:20:44.228Z,94948.16
2023-11-21T01:23:45.924Z,94935.13
2023-11-21T01:26:47.645Z,94946.28
2023-11-21T01:29:49.619Z,94949.31
2023-11-21T01:32:51.638Z,94947.72
2023-11-21T01:35:54.909Z,94951.44
2023-11-21T01:38:56.597Z,94953.34
2023-11-21T01:41:58.344Z,94951.41
2023-11-21T01:45:00.040Z,94950.69
2023-11-21T01:48:02.113Z,94941.75
2023-11-21T01:51:05.757Z,94940.16
2023-11-21T01:54:15.434Z,94938.13
2023-11-21T01:57:22.790Z,94944.50
2023-11-21T02:00:24.642Z,94942.28
2023-11-21T02:03:26.606Z,94948.44
2023-11-21T02:06:31.215Z,94950.44
2023-11-21T02:09:33.215Z,94956.25
2023-11-21T02:12:34.991Z,94959.16
2023-11-21T02:15:36.761Z,94956.22
2023-11-21T02:18:38.624Z,94954.28
2023-11-21T02:21:41.770Z,94956.25
2023-11-21T02:24:44.855Z,94942.50
2023-11-21T02:27:49.230Z,94955.97
2023-11-21T02:30:50.969Z,94954.44
2023-11-21T02:33:52.684Z,94942.16
2023-11-21T02:36:54.516Z,94940.63
2023-11-21T02:39:57.616Z,94939.16
2023-11-21T02:42:59.345Z,94928.44
2023-11-21T02:46:01.048Z,94936.91
2023-11-21T02:49:03.499Z,94925.78
2023-11-21T02:52:05.757Z,94917.72
2023-11-21T02:55:09.585Z,94917.34
2023-11-21T02:58:11.274Z,94912.34
2023-11-21T03:01:13.014Z,94911.22
2023-11-21T03:04:14.856Z,94912.72
2023-11-21T03:07:16.741Z,94908.09
2023-11-21T03:10:19.921Z,94906.56
2023-11-21T03:13:21.631Z,94900.44
2023-11-21T03:16:23.400Z,94903.88
2023-11-21T03:19:25.293Z,94908.09
2023-11-21T03:22:27.220Z,94907.69
2023-11-21T03:25:30.408Z,94901.19
2023-11-21T03:28:32.205Z,94899.63
2023-11-21T03:31:36.484Z,94896.53
2023-11-21T03:34:54.776Z,94900.72
2023-11-21T03:37:56.667Z,94904.22
2023-11-21T03:40:59.742Z,94900.72
2023-11-21T03:44:01.456Z,94888.03
2023-11-21T03:47:03.300Z,94898.28
2023-11-21T03:50:05.959Z,94889.78
2023-11-21T03:53:07.689Z,94893.31
2023-11-21T03:56:11.035Z,94900.22
2023-11-21T03:59:12.791Z,94896.78
2023-11-21T04:02:14.533Z,94908.31
2023-11-21T04:05:16.300Z,94911.00
2023-11-21T04:08:18.065Z,94906.06
2023-11-21T04:11:21.218Z,94906.44
2023-11-21T04:14:23.812Z,94902.59
2023-11-21T04:17:25.643Z,94900.28
2023-11-21T04:20:27.499Z,94899.91
2023-11-21T04:23:30.632Z,94885.69
2023-11-21T04:26:33.909Z,94885.66
2023-11-21T04:29:35.606Z,94892.97
2023-11-21T04:32:40.304Z,94891.38
2023-11-21T04:35:42.059Z,94895.19
2023-11-21T04:38:43.987Z,94889.84
2023-11-21T04:41:47.121Z,94893.31
2023-11-21T04:44:49.158Z,94896.38
2023-11-21T04:47:50.891Z,94894.00
2023-11-21T04:50:52.693Z,94890.22
2023-11-21T04:53:54.497Z,94899.75
2023-11-21T04:56:57.712Z,94900.13
2023-11-21T04:59:59.737Z,94898.94
2023-11-21T05:03:01.582Z,94904.00
2023-11-21T05:06:03.644Z,94904.75
2023-11-21T05:09:05.489Z,94910.94
2023-11-21T05:12:09.091Z,94920.47
2023-11-21T05:15:14.665Z,94912.06
2023-11-21T05:18:16.425Z,94921.91
2023-11-21T05:21:18.281Z,94917.69
2023-11-21T05:24:19.983Z,94913.50
2023-11-21T05:27:23.083Z,94905.84
2023-11-21T05:30:24.850Z,94906.63
2023-11-21T05:33:26.572Z,94905.47
2023-11-21T05:36:28.247Z,94912.34
2023-11-21T05:39:30.119Z,94918.47
2023-11-21T05:42:33.205Z,94921.53
2023-11-21T05:45:34.921Z,94923.81
2023-11-21T05:48:36.650Z,94929.97
2023-11-21T05:51:38.414Z,94933.03
2023-11-21T05:54:40.117Z,94927.31
2023-11-21T05:57:44.929Z,94931.56
2023-11-21T06:00:46.790Z,94936.06
2023-11-21T06:03:48.582Z,94926.00
2023-11-21T06:06:50.500Z,94933.03
2023-11-21T06:09:52.212Z,94929.94
2023-11-21T06:12:55.373Z,94940.25
2023-11-21T06:15:57.090Z,94936.06
2023-11-21T06:18:58.823Z,94939.81
2023-11-21T06:22:00.482Z,94941.28
2023-11-21T06:25:02.200Z,94942.69
2023-11-21T06:28:05.479Z,94943.84
2023-11-21T06:31:10.116Z,94950.81
2023-11-21T06:34:11.963Z,94946.97
2023-11-21T06:37:13.685Z,94944.31
2023-11-21T06:40:16.161Z,94946.03
2023-11-21T06:43:19.293Z,94955.00
2023-11-21T06:46:21.271Z,94959.31
2023-11-21T06:49:23.132Z,94962.03
2023-11-21T06:52:24.854Z,94957.06
2023-11-21T06:55:26.624Z,94959.78
2023-11-21T06:58:29.792Z,94959.84
2023-11-21T07:01:31.570Z,94964.06
2023-11-21T07:04:33.371Z,94966.69
2023-11-21T07:07:35.244Z,94967.50
2023-11-21T07:10:37.204Z,94975.22
2023-11-21T07:13:40.334Z,94976.59
2023-11-21T07:16:42.097Z,94979.41
2023-11-21T07:19:43.890Z,94983.31
2023-11-21T07:22:45.683Z,94984.75
2023-11-21T07:25:47.742Z,94994.00
2023-11-21T07:28:51.846Z,94986.78
2023-11-21T07:31:53.793Z,94997.91
2023-11-21T07:34:55.548Z,94996.41
2023-11-21T07:37:57.485Z,94995.16
2023-11-21T07:40:59.255Z,94993.31
2023-11-21T07:44:02.428Z,94991.44
2023-11-21T07:47:04.574Z,94994.06
2023-11-21T07:50:09.862Z,94994.09
2023-11-21T07:53:11.605Z,95000.69
2023-11-21T07:56:13.316Z,95000.69
2023-11-21T07:59:16.420Z,95000.59
2023-11-21T08:02:18.115Z,94987.59
2023-11-21T08:05:25.365Z,94993.78
2023-11-21T08:08:34.330Z,94986.22
2023-11-21T08:11:36.034Z,94986.91
2023-11-21T08:14:39.130Z,95000.69
2023-11-21T08:17:40.974Z,94987.19
2023-11-21T08:20:42.953Z,94989.94
2023-11-21T08:23:44.735Z,94993.00
2023-11-21T08:26:46.456Z,94993.00
2023-11-21T08:29:49.665Z,95006.78
2023-11-21T08:32:51.453Z,95005.66
2023-11-21T08:35:53.407Z,95000.09
2023-11-21T08:38:55.296Z,94996.66
2023-11-21T08:41:57.562Z,94996.63
2023-11-21T08:45:00.699Z,94999.66
2023-11-21T08:48:02.707Z,95001.88
2023-11-21T08:51:05.230Z,95011.47
2023-11-21T08:54:09.650Z,95007.69
2023-11-21T08:57:11.390Z,95009.66
2023-11-21T09:00:15.058Z,95014.31
2023-11-21T09:03:16.888Z,95011.94
2023-11-21T09:06:18.740Z,95015.72
2023-11-21T09:09:20.501Z,95014.72
2023-11-21T09:12:22.271Z,95004.75
2023-11-21T09:15:25.741Z,95010.75
2023-11-21T09:18:30.075Z,95017.00
2023-11-21T09:21:31.896Z,95023.50
2023-11-21T09:24:33.653Z,95031.22
2023-11-21T09:27:35.464Z,95033.56
2023-11-21T09:30:38.729Z,95033.22
2023-11-21T09:33:40.493Z,95032.09
2023-11-21T09:36:42.287Z,95038.28
2023-11-21T09:39:44.017Z,95042.06
2023-11-21T09:42:56.329Z,95038.97
2023-11-21T09:46:02.807Z,95042.34
2023-11-21T09:49:05.511Z,95034.66
2023-11-21T09:52:13.133Z,95030.91
2023-11-21T09:55:16.950Z,95024.47
2023-11-21T09:58:19.149Z,95025.31
2023-11-21T10:01:27.631Z,95011.56
2023-11-21T10:04:29.753Z,95020.25
2023-11-21T10:07:35.229Z,95020.69
2023-11-21T10:10:37.618Z,95015.97
2023-11-21T10:13:40.248Z,95021.78
2023-11-21T10:16:45.400Z,95029.81
2023-11-21T10:19:48.250Z,95022.53
2023-11-21T10:22:50.147Z,95020.59
2023-11-21T10:25:52.157Z,95010.59
2023-11-21T10:28:57.539Z,95008.78
2023-11-21T10:32:00.713Z,95006.81
2023-11-21T10:35:05.270Z,95010.63
2023-11-21T10:38:07.161Z,95007.94
2023-11-21T10:41:12.402Z,95005.72
2023-11-21T10:44:15.338Z,95012.19
2023-11-21T10:47:18.736Z,95013.44
2023-11-21T10:50:20.654Z,95010.69
2023-11-21T10:53:22.511Z,95017.13
2023-11-21T10:56:26.603Z,95011.47
2023-11-21T10:59:30.793Z,95020.72
2023-11-21T11:02:34.523Z,95007.28
2023-11-21T11:05:37.025Z,94994.72
2023-11-21T11:08:39.391Z,95004.31
2023-11-21T11:11:41.210Z,95002.06
2023-11-21T11:14:43.257Z,95004.00
2023-11-21T11:17:46.473Z,95001.38
2023-11-21T11:20:52.036Z,95004.78
2023-11-21T11:24:13.149Z,95010.44
2023-11-21T11:27:25.672Z,95010.13
2023-11-21T11:30:40.576Z,95009.00
2023-11-21T11:33:49.756Z,95003.97
2023-11-21T11:37:01.120Z,95010.13
2023-11-21T11:40:07.226Z,95012.81
2023-11-21T11:43:09.174Z,94999.47
2023-11-21T11:46:11.765Z,95006.00
2023-11-21T11:49:28.287Z,95005.25
2023-11-21T11:52:37.934Z,95005.72
2023-11-21T11:55:39.833Z,95002.22
2023-11-21T11:58:43.121Z,94998.78
2023-11-21T12:01:47.963Z,95004.56
2023-11-21T12:04:56.818Z,95001.47
2023-11-21T12:08:00.601Z,94998.38
2023-11-21T12:11:07.572Z,95000.16
2023-11-21T12:14:09.413Z,95009.00
2023-11-21T12:17:11.211Z,95012.50
2023-11-21T12:20:14.937Z,95000.13
2023-11-21T12:23:16.710Z,95011.34
2023-11-21T12:26:18.436Z,95002.94
2023-11-21T12:29:20.236Z,95002.94
2023-11-21T12:32:22.527Z,95011.75
2023-11-21T12:35:27.278Z,95004.72
2023-11-21T12:38:35.065Z,95012.03
2023-11-21T12:41:36.808Z,95010.00
2023-11-21T12:44:40.107Z,95011.16
2023-11-21T12:47:43.244Z,95009.72
2023-11-21T12:50:46.414Z,95007.72
2023-11-21T12:53:48.282Z,95014.66
2023-11-21T12:56:50.994Z,95009.56
2023-11-21T12:59:52.693Z,95008.88
2023-11-21T13:02:55.505Z,95006.25
2023-11-21T13:05:58.762Z,95004.00
2023-11-21T13:09:01.731Z,94998.28
2023-11-21T13:12:03.674Z,95002.94
2023-11-21T13:15:07.822Z,95005.63
2023-11-21T13:18:09.590Z,95010.63
2023-11-21T13:21:12.858Z,95010.63
2023-11-21T13:24:14.579Z,95011.03
2023-11-21T13:27:16.342Z,95009.88
2023-11-21T13:30:18.354Z,95014.91
2023-11-21T13:33:20.672Z,95011.81
2023-11-21T13:36:24.360Z,95021.03
2023-11-21T13:39:26.119Z,95017.19
2023-11-21T13:42:27.821Z,95019.53
2023-11-21T13:45:31.990Z,95015.31
2023-11-21T13:48:34.913Z,95021.88
2023-11-21T13:51:38.169Z,95029.88
2023-11-21T13:54:39.909Z,95026.84
2023-11-21T13:57:41.604Z,95032.09
2023-11-21T14:00:43.352Z,95030.97
2023-11-21T14:03:45.254Z,95032.88
2023-11-21T14:06:50.337Z,95035.94
2023-11-21T14:09:52.303Z,95036.63
2023-11-21T14:12:54.002Z,95039.31
2023-11-21T14:15:55.745Z,95043.94
2023-11-21T14:18:57.461Z,95034.66
2023-11-21T14:22:00.823Z,95044.28
2023-11-21T14:25:02.575Z,95042.38
2023-11-21T14:28:04.895Z,95045.09
2023-11-21T14:31:06.794Z,95060.88
2023-11-21T14:34:08.863Z,95051.63
2023-11-21T14:37:11.974Z,95053.16
2023-11-21T14:40:13.707Z,95050.44
2023-11-21T14:43:15.391Z,95046.78
2023-11-21T14:46:17.130Z,95052.16
2023-11-21T14:49:18.880Z,95053.38
2023-11-21T14:52:25.187Z,95058.72
2023-11-21T14:55:26.986Z,95066.31
2023-11-21T14:58:28.786Z,95065.91
2023-11-21T15:01:33.003Z,95070.19
2023-11-21T15:04:37.840Z,95080.59
2023-11-21T15:07:42.151Z,95085.09
2023-11-21T15:10:43.974Z,95085.06
2023-11-21T15:13:45.775Z,95087.13
2023-11-21T15:16:47.789Z,95096.09
2023-11-21T15:19:49.738Z,95085.41
2023-11-21T15:22:52.907Z,95099.97
2023-11-21T15:25:54.801Z,95095.66
2023-11-21T15:28:56.747Z,95091.06
2023-11-21T15:31:58.593Z,95096.38
2023-11-21T15:35:00.483Z,95099.09
2023-11-21T15:38:03.675Z,95104.19
2023-11-21T15:41:05.743Z,95102.31
2023-11-21T15:44:10.056Z,95102.25
2023-11-21T15:47:11.889Z,95103.06
2023-11-21T15:50:13.759Z,95107.22
2023-11-21T15:53:16.895Z,95113.75
2023-11-21T15:56:20.838Z,95116.91
2023-11-21T15:59:22.662Z,95119.66
2023-11-21T16:02:24.423Z,95117.84
2023-11-21T16:05:26.273Z,95113.22
2023-11-21T16:08:29.371Z,95117.09
2023-11-21T16:11:31.087Z,95123.28
2023-11-21T16:14:35.293Z,95127.50
2023-11-21T16:17:37.411Z,95125.28
2023-11-21T16:20:39.307Z,95119.94
2023-11-21T16:23:42.408Z,95129.22
2023-11-21T16:26:44.198Z,95131.13
2023-11-21T16:29:45.912Z,95139.91
2023-11-21T16:32:47.688Z,95141.09
2023-11-21T16:35:49.392Z,95142.25
2023-11-21T16:38:52.528Z,95144.56
2023-11-21T16:41:54.232Z,95139.13
2023-11-21T16:44:55.932Z,95150.75
2023-11-21T16:47:57.711Z,95155.13
2023-11-21T16:50:59.490Z,95154.78
2023-11-21T16:54:02.592Z,95158.34
2023-11-21T16:57:04.853Z,95166.75
2023-11-21T17:00:07.491Z,95164.84
2023-11-21T17:03:09.355Z,95164.13
2023-11-21T17:06:11.175Z,95160.28
2023-11-21T17:09:14.346Z,95167.13
2023-11-21T17:12:16.086Z,95166.75
2023-11-21T17:15:17.857Z,95161.81
2023-11-21T17:18:19.618Z,95170.19
2023-11-21T17:21:26.369Z,95167.44
2023-11-21T17:24:33.205Z,95172.06
2023-11-21T17:27:34.961Z,95172.81
2023-11-21T17:30:36.685Z,95179.25
2023-11-21T17:33:39.425Z,95184.63
2023-11-21T17:36:42.402Z,95195.38
2023-11-21T17:39:45.582Z,95192.25
2023-11-21T17:42:47.314Z,95187.72
2023-11-21T17:45:49.112Z,95188.84
2023-11-21T17:48:51.471Z,95192.63
2023-11-21T17:51:53.230Z,95190.16
2023-11-21T17:54:56.329Z,95188.88
2023-11-21T17:57:58.282Z,95193.28
2023-11-21T18:01:00.119Z,95197.47
2023-11-21T18:04:02.213Z,95198.75
2023-11-21T18:07:04.358Z,95197.28
2023-11-21T18:10:09.067Z,95196.16
2023-11-21T18:13:10.790Z,95203.28
2023-11-21T18:16:12.496Z,95201.63
2023-11-21T18:19:14.298Z,95198.06
2023-11-21T18:22:15.996Z,95200.50
2023-11-21T18:25:19.310Z,95194.72
2023-11-21T18:28:21.126Z,95199.41
2023-11-21T18:31:22.867Z,95200.53
2023-11-21T18:34:24.605Z,95213.50
2023-11-21T18:37:26.331Z,95203.22
2023-11-21T18:40:29.551Z,95205.47
2023-11-21T18:43:31.279Z,95215.78
2023-11-21T18:46:37.108Z,95219.09
2023-11-21T18:49:39.093Z,95224.28
2023-11-21T18:52:40.842Z,95231.53
2023-11-21T18:55:44.023Z,95235.75
2023-11-21T18:58:45.803Z,95238.50
2023-11-21T19:01:47.802Z,95234.88
2023-11-21T19:04:49.740Z,95245.06
2023-11-21T19:07:51.735Z,95249.66
2023-11-21T19:10:56.085Z,95251.81
2023-11-21T19:13:57.901Z,95260.38
2023-11-21T19:17:00.263Z,95262.78
2023-11-21T19:20:02.829Z,95261.75
2023-11-21T19:23:04.611Z,95263.72
2023-11-21T19:26:07.761Z,95263.47
2023-11-21T19:29:09.685Z,95269.00
2023-11-21T19:32:11.943Z,95263.34
2023-11-21T19:35:14.106Z,95256.66
2023-11-21T19:38:16.307Z,95262.59
2023-11-21T19:41:21.266Z,95269.16
2023-11-21T19:44:23.660Z,95273.34
2023-11-21T19:47:25.710Z,95266.72
2023-11-21T19:50:27.583Z,95270.69
2023-11-21T19:53:29.341Z,95291.13
2023-11-21T19:56:32.470Z,95292.03
2023-11-21T19:59:34.890Z,95291.28
2023-11-21T20:02:36.846Z,95292.09
2023-11-21T20:05:38.949Z,95298.28
2023-11-21T20:08:40.703Z,95303.34
2023-11-21T20:11:43.893Z,95317.22
2023-11-21T20:14:45.739Z,95319.22
2023-11-21T20:17:49.242Z,95311.19
2023-11-21T20:20:51.815Z,95321.56
2023-11-21T20:23:53.654Z,95325.50
2023-11-21T20:26:57.601Z,95330.81
2023-11-21T20:29:59.354Z,95321.97
2023-11-21T20:33:01.228Z,95330.03
2023-11-21T20:36:03.215Z,95338.88
2023-11-21T20:39:05.046Z,95342.63
2023-11-21T20:42:08.449Z,95349.22
2023-11-21T20:45:10.779Z,95348.13
2023-11-21T20:48:12.849Z,95344.31
2023-11-21T20:51:14.762Z,95341.22
2023-11-21T20:54:16.570Z,95342.72
2023-11-21T20:57:19.698Z,95345.31
2023-11-21T21:00:21.639Z,95349.03
2023-11-21T21:03:23.570Z,95352.53
2023-11-21T21:06:25.324Z,95342.91
2023-11-21T21:09:27.135Z,95338.97
2023-11-21T21:12:30.195Z,95338.53
2023-11-21T21:15:31.989Z,95344.69
2023-11-21T21:18:33.807Z,95355.44
2023-11-21T21:21:35.583Z,95356.09
2023-11-21T21:24:37.351Z,95354.50
2023-11-21T21:27:40.613Z,95349.13
2023-11-21T21:30:42.478Z,95353.84
2023-11-21T21:33:44.954Z,95358.03
2023-11-21T21:36:46.735Z,95357.91
2023-11-21T21:39:48.469Z,95367.09
2023-11-21T21:42:51.535Z,95367.09
2023-11-21T21:45:55.623Z,95359.06
2023-11-21T21:48:57.338Z,95358.75
2023-11-21T21:52:00.187Z,95361.53
2023-11-21T21:55:02.009Z,95365.13
2023-11-21T21:58:05.160Z,95370.56
2023-11-21T22:01:06.895Z,95378.97
2023-11-21T22:04:08.905Z,95378.03
2023-11-21T22:07:10.733Z,95380.72
2023-11-21T22:10:12.426Z,95376.31
2023-11-21T22:13:15.553Z,95383.84
2023-11-21T22:16:17.354Z,95389.34
2023-11-21T22:19:19.195Z,95389.78
2023-11-21T22:22:20.911Z,95394.66
2023-11-21T22:25:23.133Z,95390.53
2023-11-21T22:28:26.215Z,95390.38
2023-11-21T22:31:27.984Z,95390.25
2023-11-21T22:34:29.746Z,95390.66
2023-11-21T22:37:31.505Z,95385.38
2023-11-21T22:40:33.253Z,95384.41
2023-11-21T22:43:36.338Z,95380.69
2023-11-21T22:46:42.284Z,95379.63
2023-11-21T22:49:44.029Z,95377.66
2023-11-21T22:52:45.810Z,95385.38
2023-11-21T22:55:47.522Z,95380.28
2023-11-21T22:58:50.783Z,95388.38
2023-11-21T23:01:52.616Z,95392.69
2023-11-21T23:04:54.490Z,95388.03
2023-11-21T23:07:56.279Z,95385.41
2023-11-21T23:10:58.002Z,95385.75
2023-11-21T23:14:01.173Z,95393.59
2023-11-21T23:17:03.030Z,95390.19
2023-11-21T23:20:06.102Z,95393.34
2023-11-21T23:23:07.873Z,95389.88
2023-11-21T23:26:09.681Z,95390.66
2023-11-21T23:29:12.833Z,95394.16
2023-11-21T23:32:15.425Z,95403.34
2023-11-21T23:35:18.303Z,95401.47
2023-11-21T23:38:20.136Z,95405.34
2023-11-21T23:41:21.973Z,95404.97
2023-11-21T23:44:25.240Z,95407.66
2023-11-21T23:47:27.121Z,95402.28
2023-11-21T23:50:30.915Z,95403.03
2023-11-21T23:53:32.766Z,95404.09
2023-11-21T23:56:34.554Z,95402.16
2023-11-21T23:59:37.626Z,95404.09
